createdAt,value
2019-04-04T00:01:39.915Z,57.70
2019-04-04T00:04:11.515Z,57.60
2019-04-04T00:07:00.050Z,57.60
2019-04-04T00:09:48.417Z,57.60
2019-04-04T00:12:36.996Z,57.60
2019-04-04T00:15:26.466Z,57.60
2019-04-04T00:18:14.921Z,57.70
2019-04-04T00:21:04.119Z,57.70
2019-04-04T00:23:52.325Z,57.70
2019-04-04T00:26:42.027Z,57.60
2019-04-04T00:29:30.889Z,57.80
2019-04-04T00:32:21.058Z,57.70
2019-04-04T00:35:08.882Z,57.70
2019-04-04T00:43:20.872Z,57.80
2019-04-04T00:46:12.763Z,57.80
2019-04-04T00:49:05.853Z,57.80
2019-04-04T00:51:53.667Z,57.90
2019-04-04T00:54:47.029Z,57.90
2019-04-04T00:57:43.383Z,58.10
2019-04-04T01:00:37.717Z,58.10
2019-04-04T01:03:32.198Z,58.10
2019-04-04T01:06:25.278Z,58.10
2019-04-04T01:09:22.850Z,58.10
2019-04-04T01:12:16.111Z,58.00
2019-04-04T01:15:10.138Z,58.00
2019-04-04T01:17:58.643Z,58.00
2019-04-04T01:20:51.364Z,58.10
2019-04-04T01:23:46.001Z,58.00
2019-04-04T01:26:39.120Z,58.00
2019-04-04T01:29:30.902Z,58.00
2019-04-04T01:32:21.361Z,58.00
2019-04-04T01:35:13.534Z,58.00
2019-04-04T01:38:06.184Z,58.00
2019-04-04T01:41:03.978Z,58.10
2019-04-04T01:43:51.259Z,58.10
2019-04-04T01:46:51.503Z,58.00
2019-04-04T01:49:51.841Z,58.20
2019-04-04T01:52:34.160Z,58.20
2019-04-04T01:55:28.214Z,58.30
2019-04-04T01:58:16.763Z,58.20
2019-04-04T02:01:08.057Z,58.20
2019-04-04T02:04:01.988Z,58.30
2019-04-04T02:06:54.575Z,58.30
2019-04-04T02:09:46.105Z,58.30
2019-04-04T02:12:38.378Z,58.30
2019-04-04T02:18:38.071Z,58.40
2019-04-04T02:21:30.614Z,58.40
2019-04-04T02:24:20.446Z,58.50
2019-04-04T02:27:11.419Z,58.50
2019-04-04T02:30:05.516Z,58.40
2019-04-04T02:32:59.747Z,58.50
2019-04-04T02:35:46.196Z,58.60
2019-04-04T02:38:39.990Z,58.50
2019-04-04T02:41:34.985Z,58.50
2019-04-04T02:44:27.269Z,58.50
2019-04-04T02:47:17.480Z,58.50
2019-04-04T02:50:07.869Z,58.60
2019-04-04T02:52:56.997Z,58.60
2019-04-04T02:55:48.364Z,58.60
2019-04-04T02:58:43.866Z,58.60
2019-04-04T03:01:34.324Z,58.60
2019-04-04T03:04:23.229Z,58.60
2019-04-04T03:07:16.016Z,58.70
2019-04-04T03:10:07.607Z,58.60
2019-04-04T03:12:58.638Z,58.70
2019-04-04T03:15:51.013Z,58.70
2019-04-04T03:18:39.441Z,58.80
2019-04-04T03:21:31.621Z,58.80
2019-04-04T03:24:20.247Z,58.90
2019-04-04T03:27:11.316Z,58.80
2019-04-04T03:30:02.333Z,58.60
2019-04-04T03:32:54.985Z,58.40
2019-04-04T03:35:43.818Z,58.30
2019-04-04T03:38:31.922Z,58.10
2019-04-04T03:41:23.052Z,57.90
2019-04-04T03:44:14.446Z,57.80
2019-04-04T03:47:04.386Z,57.60
2019-04-04T03:49:58.722Z,57.40
2019-04-04T03:52:51.828Z,57.20
2019-04-04T03:55:46.758Z,57.10
2019-04-04T03:58:35.000Z,57.00
2019-04-04T04:01:23.322Z,56.90
2019-04-04T04:04:11.294Z,56.80
2019-04-04T04:06:43.103Z,56.70
2019-04-04T04:09:32.063Z,56.70
2019-04-04T04:12:20.511Z,56.50
2019-04-04T04:15:09.147Z,56.40
2019-04-04T04:17:57.410Z,56.40
2019-04-04T04:20:49.005Z,56.40
2019-04-04T04:23:37.690Z,56.20
2019-04-04T04:26:31.563Z,56.20
2019-04-04T04:29:29.500Z,56.20
2019-04-04T04:32:21.875Z,56.10
2019-04-04T04:35:15.471Z,56.10
2019-04-04T04:38:09.037Z,56.10
2019-04-04T04:41:04.488Z,56.00
2019-04-04T04:43:55.575Z,56.00
2019-04-04T04:46:52.100Z,56.00
2019-04-04T04:49:40.272Z,56.00
2019-04-04T04:52:34.560Z,56.00
2019-04-04T04:55:35.219Z,56.00
2019-04-04T04:58:23.786Z,56.00
2019-04-04T05:01:18.343Z,56.10
2019-04-04T05:04:13.536Z,56.10
2019-04-04T05:07:07.112Z,56.10
2019-04-04T05:09:58.156Z,56.10
2019-04-04T05:12:53.205Z,56.10
2019-04-04T05:15:51.402Z,56.10
2019-04-04T05:18:48.164Z,56.10
2019-04-04T05:21:54.862Z,56.20
2019-04-04T05:25:06.867Z,56.20
2019-04-04T05:27:42.520Z,56.20
2019-04-04T05:30:30.563Z,56.20
2019-04-04T05:33:19.374Z,56.20
2019-04-04T05:36:07.771Z,56.20
2019-04-04T05:39:02.290Z,56.30
2019-04-04T05:41:54.137Z,56.30
2019-04-04T05:44:42.337Z,56.30
2019-04-04T05:47:36.986Z,56.20
2019-04-04T05:50:27.594Z,56.20
2019-04-04T05:53:15.990Z,56.20
2019-04-04T05:56:09.871Z,56.20
2019-04-04T05:58:59.838Z,56.20
2019-04-04T06:01:51.448Z,56.20
2019-04-04T06:04:43.833Z,56.10
2019-04-04T06:07:18.683Z,56.10
2019-04-04T06:10:12.297Z,56.10
2019-04-04T06:13:10.942Z,56.10
2019-04-04T06:16:04.196Z,56.00
2019-04-04T06:18:56.925Z,56.00
2019-04-04T06:21:45.535Z,55.90
2019-04-04T06:24:46.115Z,55.90
2019-04-04T06:27:34.563Z,55.90
2019-04-04T06:30:42.521Z,55.80
2019-04-04T06:33:25.596Z,55.80
2019-04-04T06:36:29.616Z,55.80
2019-04-04T06:39:25.135Z,55.70
2019-04-04T06:42:16.783Z,55.70
2019-04-04T06:45:15.229Z,55.60
2019-04-04T06:48:01.648Z,55.60
2019-04-04T06:50:50.234Z,55.40
2019-04-04T06:53:43.342Z,55.40
2019-04-04T06:56:31.797Z,55.40
2019-04-04T06:59:18.592Z,55.40
2019-04-04T07:02:12.420Z,55.50
2019-04-04T07:05:00.802Z,55.50
2019-04-04T07:07:50.727Z,55.60
2019-04-04T07:10:57.170Z,55.60
2019-04-04T07:13:42.602Z,55.60
2019-04-04T07:16:36.218Z,55.60
2019-04-04T07:19:28.450Z,55.60
2019-04-04T07:22:24.741Z,55.60
2019-04-04T07:25:09.421Z,55.60
2019-04-04T07:28:00.936Z,55.70
2019-04-04T07:30:54.685Z,55.60
2019-04-04T07:33:43.346Z,55.70
2019-04-04T07:36:33.792Z,55.80
2019-04-04T07:39:31.984Z,55.80
2019-04-04T07:42:26.581Z,55.80
2019-04-04T07:48:28.582Z,55.80
2019-04-04T07:51:22.678Z,55.90
2019-04-04T07:54:17.561Z,56.20
2019-04-04T07:57:06.235Z,56.20
2019-04-04T07:59:54.718Z,56.20
2019-04-04T08:03:01.451Z,56.10
2019-04-04T08:05:55.295Z,56.10
2019-04-04T08:08:30.833Z,56.00
2019-04-04T08:14:41.398Z,56.30
2019-04-04T08:17:45.819Z,56.60
2019-04-04T08:20:35.002Z,56.70
2019-04-04T08:23:46.002Z,56.80
2019-04-04T08:26:28.665Z,57.00
2019-04-04T08:29:16.696Z,57.00
2019-04-04T08:32:05.813Z,57.10
2019-04-04T08:34:54.437Z,57.40
2019-04-04T08:37:42.785Z,57.30
2019-04-04T08:40:31.466Z,57.00
2019-04-04T08:43:19.712Z,57.00
2019-04-04T08:46:08.306Z,57.00
2019-04-04T08:48:56.863Z,57.00
2019-04-04T08:51:44.981Z,56.90
2019-04-04T08:54:34.154Z,57.10
2019-04-04T08:57:22.801Z,56.70
2019-04-04T09:00:13.517Z,56.50
2019-04-04T09:03:01.750Z,56.60
2019-04-04T09:05:32.413Z,56.40
2019-04-04T09:08:03.152Z,56.40
2019-04-04T09:10:33.814Z,56.30
2019-04-04T09:13:03.663Z,56.20
2019-04-04T09:15:33.431Z,56.10
2019-04-04T09:18:21.787Z,56.00
2019-04-04T09:20:52.087Z,55.80
2019-04-04T09:23:21.959Z,55.60
2019-04-04T09:25:55.625Z,55.60
2019-04-04T09:28:41.697Z,55.70
2019-04-04T09:31:12.338Z,55.70
2019-04-04T09:33:43.030Z,55.80
2019-04-04T09:36:13.719Z,55.80
2019-04-04T09:38:44.473Z,56.00
2019-04-04T09:41:15.193Z,55.90
2019-04-04T09:43:46.587Z,53.30
2019-04-04T09:46:17.261Z,55.60
2019-04-04T09:48:47.917Z,55.30
2019-04-04T09:51:18.613Z,55.40
2019-04-04T09:53:53.419Z,55.20
2019-04-04T09:56:39.067Z,55.30
2019-04-04T09:59:27.402Z,55.40
2019-04-04T10:02:17.554Z,55.20
2019-04-04T10:05:07.157Z,55.30
2019-04-04T10:07:55.773Z,55.10
2019-04-04T10:10:44.061Z,55.30
2019-04-04T10:13:32.603Z,55.20
2019-04-04T10:16:21.195Z,55.20
2019-04-04T10:19:09.656Z,55.40
2019-04-04T10:21:58.062Z,55.30
2019-04-04T10:24:46.364Z,56.10
2019-04-04T10:27:36.024Z,55.50
2019-04-04T10:30:24.614Z,54.40
2019-04-04T10:33:12.793Z,54.60
2019-04-04T10:36:01.677Z,54.70
2019-04-04T10:38:50.214Z,55.90
2019-04-04T10:41:38.598Z,56.50
2019-04-04T10:44:09.264Z,56.80
2019-04-04T10:46:39.998Z,56.80
2019-04-04T10:49:10.678Z,56.60
2019-04-04T10:51:41.329Z,56.30
2019-04-04T10:54:12.093Z,56.10
2019-04-04T10:56:42.776Z,56.00
2019-04-04T10:59:13.499Z,56.00
2019-04-04T11:01:44.169Z,56.00
2019-04-04T11:04:14.815Z,55.90
2019-04-04T11:07:03.515Z,55.80
2019-04-04T11:09:52.101Z,55.60
2019-04-04T11:12:40.297Z,55.60
2019-04-04T11:15:28.870Z,55.50
2019-04-04T11:18:18.031Z,55.40
2019-04-04T11:21:06.928Z,55.30
2019-04-04T11:23:55.461Z,55.20
2019-04-04T11:26:44.449Z,55.20
2019-04-04T11:29:33.061Z,55.10
2019-04-04T11:32:21.283Z,55.10
2019-04-04T11:35:10.486Z,54.90
2019-04-04T11:37:58.992Z,54.80
2019-04-04T11:40:47.410Z,54.70
2019-04-04T11:43:36.295Z,54.80
2019-04-04T11:46:24.513Z,54.80
2019-04-04T11:49:13.093Z,54.60
2019-04-04T11:52:01.153Z,54.60
2019-04-04T11:55:02.411Z,54.60
2019-04-04T11:57:50.438Z,54.60
2019-04-04T12:00:40.990Z,54.70
2019-04-04T12:03:29.029Z,54.50
2019-04-04T12:06:17.293Z,54.70
2019-04-04T12:09:07.293Z,54.70
2019-04-04T12:11:55.623Z,54.70
2019-04-04T12:14:44.063Z,54.70
2019-04-04T12:17:32.841Z,54.80
2019-04-04T12:20:21.065Z,54.90
2019-04-04T12:23:10.216Z,54.90
2019-04-04T12:25:58.668Z,54.90
2019-04-04T12:28:46.695Z,54.90
2019-04-04T12:31:35.193Z,55.00
2019-04-04T12:34:23.734Z,55.20
2019-04-04T12:37:12.468Z,55.40
2019-04-04T12:40:01.244Z,56.10
2019-04-04T12:42:49.862Z,56.00
2019-04-04T12:45:38.792Z,56.20
2019-04-04T12:48:27.014Z,56.10
2019-04-04T12:51:15.772Z,56.30
2019-04-04T12:54:04.260Z,56.40
2019-04-04T12:56:53.096Z,56.70
2019-04-04T12:59:42.431Z,56.60
2019-04-04T13:02:31.384Z,56.60
2019-04-04T13:05:19.922Z,56.40
2019-04-04T13:08:08.511Z,56.30
2019-04-04T13:10:58.815Z,56.30
2019-04-04T13:13:47.227Z,56.20
2019-04-04T13:16:35.622Z,56.20
2019-04-04T13:19:24.750Z,56.30
2019-04-04T13:22:13.994Z,56.80
2019-04-04T13:25:02.512Z,56.80
2019-04-04T13:27:51.128Z,56.80
2019-04-04T13:30:39.733Z,56.60
2019-04-04T13:33:28.342Z,56.70
2019-04-04T13:36:17.208Z,56.60
2019-04-04T13:39:10.454Z,56.60
2019-04-04T13:41:58.847Z,56.70
2019-04-04T13:44:47.441Z,56.20
2019-04-04T13:47:39.296Z,56.10
2019-04-04T13:50:27.115Z,56.00
2019-04-04T13:53:16.291Z,55.90
2019-04-04T13:56:04.942Z,55.90
2019-04-04T13:58:53.180Z,55.80
2019-04-04T14:01:44.226Z,55.80
2019-04-04T14:04:32.514Z,55.70
2019-04-04T14:07:20.924Z,55.70
2019-04-04T14:10:10.969Z,55.60
2019-04-04T14:12:59.124Z,55.60
2019-04-04T14:15:47.369Z,55.70
2019-04-04T14:18:39.881Z,55.50
2019-04-04T14:21:26.338Z,55.50
2019-04-04T14:24:15.080Z,55.50
2019-04-04T14:27:03.465Z,54.80
2019-04-04T14:29:51.819Z,53.80
2019-04-04T14:32:40.019Z,54.40
2019-04-04T14:35:29.363Z,53.90
2019-04-04T14:38:17.834Z,53.60
2019-04-04T14:41:11.641Z,53.60
2019-04-04T14:43:59.970Z,53.60
2019-04-04T14:46:46.701Z,53.80
2019-04-04T14:49:34.990Z,54.00
2019-04-04T14:52:24.257Z,54.20
2019-04-04T14:55:12.813Z,54.30
2019-04-04T14:58:00.956Z,54.30
2019-04-04T15:00:49.018Z,54.40
2019-04-04T15:03:37.610Z,54.40
2019-04-04T15:06:26.303Z,54.50
2019-04-04T15:09:15.273Z,54.60
2019-04-04T15:12:04.027Z,54.60
2019-04-04T15:14:52.347Z,54.70
2019-04-04T15:17:40.583Z,54.70
2019-04-04T15:20:28.946Z,54.70
2019-04-04T15:23:17.393Z,54.80
2019-04-04T15:26:05.931Z,54.90
2019-04-04T15:28:54.115Z,55.00
2019-04-04T15:31:42.545Z,55.10
2019-04-04T15:34:30.593Z,55.00
2019-04-04T15:37:19.510Z,55.30
2019-04-04T15:40:08.758Z,55.70
2019-04-04T15:42:57.266Z,55.80
2019-04-04T15:45:46.004Z,55.90
2019-04-04T15:48:34.518Z,55.80
2019-04-04T15:51:22.917Z,55.90
2019-04-04T15:54:11.888Z,56.00
2019-04-04T15:57:00.381Z,55.80
2019-04-04T15:59:48.724Z,56.00
2019-04-04T16:02:37.495Z,56.00
2019-04-04T16:05:25.919Z,56.00
2019-04-04T16:08:14.342Z,55.90
2019-04-04T16:11:03.302Z,55.90
2019-04-04T16:13:51.967Z,56.00
2019-04-04T16:16:40.379Z,56.10
2019-04-04T16:19:29.209Z,56.10
2019-04-04T16:22:17.838Z,56.10
2019-04-04T16:25:08.083Z,55.90
2019-04-04T16:27:56.235Z,55.60
2019-04-04T16:30:44.944Z,55.50
2019-04-04T16:33:33.022Z,55.40
2019-04-04T16:36:21.244Z,55.30
2019-04-04T16:39:10.490Z,55.40
2019-04-04T16:42:02.419Z,55.30
2019-04-04T16:44:48.877Z,55.20
2019-04-04T16:47:38.353Z,55.30
2019-04-04T16:50:26.681Z,55.30
2019-04-04T16:53:14.846Z,55.30
2019-04-04T16:56:03.502Z,55.40
2019-04-04T16:58:52.536Z,55.40
2019-04-04T17:01:41.147Z,55.40
2019-04-04T17:04:29.792Z,55.30
2019-04-04T17:07:18.317Z,55.30
2019-04-04T17:10:08.946Z,55.30
2019-04-04T17:12:57.110Z,55.30
2019-04-04T17:15:45.842Z,55.30
2019-04-04T17:18:34.066Z,55.30
2019-04-04T17:21:23.039Z,55.30
2019-04-04T17:24:11.696Z,55.30
2019-04-04T17:27:00.319Z,55.30
2019-04-04T17:29:48.736Z,55.30
2019-04-04T17:32:37.501Z,55.20
2019-04-04T17:35:26.069Z,55.20
2019-04-04T17:38:14.415Z,55.20
2019-04-04T17:41:02.737Z,55.20
2019-04-04T17:43:50.955Z,55.20
2019-04-04T17:46:39.981Z,55.30
2019-04-04T17:49:29.528Z,55.20
2019-04-04T17:52:18.788Z,55.20
2019-04-04T17:55:09.096Z,55.20
2019-04-04T17:57:57.915Z,55.20
2019-04-04T18:00:46.694Z,55.20
2019-04-04T18:03:35.221Z,55.20
2019-04-04T18:06:23.569Z,55.20
2019-04-04T18:09:12.151Z,55.20
2019-04-04T18:12:00.535Z,55.20
2019-04-04T18:14:48.940Z,55.20
2019-04-04T18:17:37.652Z,55.10
2019-04-04T18:20:26.391Z,55.10
2019-04-04T18:23:15.229Z,55.10
2019-04-04T18:26:04.154Z,55.10
2019-04-04T18:28:53.358Z,55.20
2019-04-04T18:31:42.353Z,55.10
2019-04-04T18:34:31.410Z,55.10
2019-04-04T18:37:20.778Z,55.10
2019-04-04T18:40:10.479Z,55.10
2019-04-04T18:42:59.074Z,55.10
2019-04-04T18:45:47.224Z,55.20
2019-04-04T18:48:35.930Z,55.20
2019-04-04T18:51:24.477Z,55.20
2019-04-04T18:54:13.100Z,55.20
2019-04-04T18:57:01.309Z,55.20
2019-04-04T18:59:51.027Z,55.30
2019-04-04T19:02:40.099Z,55.30
2019-04-04T19:05:28.375Z,55.30
2019-04-04T19:08:18.048Z,55.40
2019-04-04T19:11:07.495Z,55.40
2019-04-04T19:13:55.700Z,55.40
2019-04-04T19:16:44.313Z,55.40
2019-04-04T19:19:33.891Z,55.40
2019-04-04T19:22:22.103Z,55.40
2019-04-04T19:25:13.650Z,55.40
2019-04-04T19:28:01.632Z,55.40
2019-04-04T19:30:50.971Z,55.40
2019-04-04T19:33:39.385Z,55.50
2019-04-04T19:36:28.144Z,55.50
2019-04-04T19:39:18.004Z,55.50
2019-04-04T19:42:07.554Z,55.50
2019-04-04T19:44:55.831Z,55.40
2019-04-04T19:47:44.526Z,55.40
2019-04-04T19:50:33.011Z,55.40
2019-04-04T19:53:21.760Z,55.40
2019-04-04T19:56:10.194Z,55.40
2019-04-04T19:58:58.829Z,55.40
2019-04-04T20:01:47.771Z,55.20
2019-04-04T20:04:38.011Z,55.40
2019-04-04T20:07:26.711Z,55.40
2019-04-04T20:10:15.243Z,55.40
2019-04-04T20:13:04.204Z,55.30
2019-04-04T20:15:52.568Z,55.30
2019-04-04T20:18:40.911Z,55.30
2019-04-04T20:21:29.618Z,55.20
2019-04-04T20:24:17.955Z,55.20
2019-04-04T20:27:06.645Z,55.20
2019-04-04T20:29:55.081Z,55.30
2019-04-04T20:32:43.333Z,55.30
2019-04-04T20:35:31.859Z,55.30
2019-04-04T20:38:20.067Z,55.40
2019-04-04T20:41:08.406Z,55.40
2019-04-04T20:43:57.249Z,55.40
2019-04-04T20:46:52.638Z,55.50
2019-04-04T20:49:40.628Z,55.50
2019-04-04T20:52:29.354Z,55.50
2019-04-04T20:55:17.861Z,55.60
2019-04-04T20:58:06.307Z,55.60
2019-04-04T21:00:54.756Z,55.70
2019-04-04T21:03:43.195Z,55.70
2019-04-04T21:06:32.630Z,55.70
2019-04-04T21:09:20.640Z,55.80
2019-04-04T21:12:11.310Z,55.80
2019-04-04T21:14:59.154Z,55.80
2019-04-04T21:17:47.405Z,55.90
2019-04-04T21:20:35.785Z,55.90
2019-04-04T21:23:24.956Z,56.00
2019-04-04T21:26:13.480Z,56.10
2019-04-04T21:29:02.054Z,56.00
2019-04-04T21:31:50.217Z,56.10
2019-04-04T21:34:38.560Z,56.10
2019-04-04T21:37:26.732Z,56.20
2019-04-04T21:40:16.034Z,56.20
2019-04-04T21:43:04.519Z,56.30
2019-04-04T21:45:53.303Z,56.30
2019-04-04T21:48:41.936Z,56.30
2019-04-04T21:51:30.136Z,56.40
2019-04-04T21:54:18.180Z,56.40
2019-04-04T21:57:06.583Z,56.50
2019-04-04T21:59:55.208Z,56.50
2019-04-04T22:02:43.883Z,56.50
2019-04-04T22:05:32.350Z,56.60
2019-04-04T22:08:20.891Z,56.60
2019-04-04T22:11:09.524Z,56.70
2019-04-04T22:13:58.637Z,56.70
2019-04-04T22:16:47.261Z,56.80
2019-04-04T22:19:36.748Z,56.80
2019-04-04T22:22:25.134Z,56.90
2019-04-04T22:25:13.424Z,56.90
2019-04-04T22:28:01.717Z,57.00
2019-04-04T22:30:50.061Z,57.00
2019-04-04T22:33:38.421Z,57.10
2019-04-04T22:36:26.887Z,57.10
2019-04-04T22:39:15.532Z,57.10
2019-04-04T22:42:03.839Z,57.20
2019-04-04T22:44:52.101Z,57.20
2019-04-04T22:47:40.493Z,57.20
2019-04-04T22:50:29.131Z,57.20
2019-04-04T22:53:18.269Z,57.30
2019-04-04T22:56:06.437Z,57.30
2019-04-04T22:58:54.903Z,57.30
2019-04-04T23:01:43.258Z,57.40
2019-04-04T23:04:31.744Z,57.40
2019-04-04T23:07:20.289Z,57.40
2019-04-04T23:10:09.217Z,57.50
2019-04-04T23:12:57.815Z,57.50
2019-04-04T23:15:46.234Z,57.50
2019-04-04T23:18:35.796Z,57.50
2019-04-04T23:21:24.443Z,57.50
2019-04-04T23:24:12.827Z,57.60
2019-04-04T23:27:01.288Z,57.60
2019-04-04T23:29:49.880Z,57.70
2019-04-04T23:32:38.638Z,57.70
2019-04-04T23:35:27.537Z,57.70
2019-04-04T23:38:15.704Z,57.80
2019-04-04T23:41:04.280Z,57.80
2019-04-04T23:43:53.001Z,57.80
2019-04-04T23:46:41.193Z,57.90
2019-04-04T23:49:29.534Z,57.90
2019-04-04T23:52:18.002Z,57.90
2019-04-04T23:55:06.850Z,57.90
2019-04-04T23:57:55.817Z,58.00
